メインページ
METAR-TAF:

METAR-TAF

空港 :

トロント・ピアソン国際空港

トロント, オンタリオ州, カナダ

緯度: 43-40N, 経度: 079-38W, 海抜: 173m

現時点の気象観測

当レポートは48分前の17:00(UTC)に作成
の風 6kt
気温 27°C
湿度 48%
気圧 1012 hPa
視程: 24.1km
高度5000ftの雲はほとんどない
高度11000ftの雲はほとんどない
高度23000ftの千切れ雲あり

METAR: CYYZ 211700Z 09006KT 15SM FEW050 FEW110 BKN230 27/15 A2988 RMK CU1AC1CS5 CU TR SLP118 DENSITY ALT 2100FT

時間: 13:48 (17:48 UTC)

予報

当レポートは3時間9分前の14:39(UTC)に作成
予報は21日の 15時(UTC)から 22日の 18時(UTC)まで有効
北西の風 8kt、最大18ktの突風を伴う
視程: 10km
高度4000ftの雲はほとんどない
高度12000ftの雲は散在している
21日の 19時(UTC)から 21日の 21時(UTC)まで徐々に
西/北西の風 10kt
22日の 05時(UTC)から 22日の 06時(UTC)まで徐々に
北/北西の風 5kt
22日の 1500時(UTC)から
の風 5kt
視程: 10km
高度6000ftの雲は散在している
高度13000ftの千切れ雲あり

TAF: CYYZ 211439Z 2115/2218 31008G18KT P6SM FEW040 SCT120 BECMG 2119/2121 30010KT BECMG 2205/2206 34005KT FM221500 01005KT P6SM SCT060 BKN130 RMK NXT FCST BY 211800Z

4,000以上の空港の気象観測と天気予報(METAR報とTAF報)

利用可能な観測所は地図上に黄色い丸と赤い丸で示す。

丸の上にカーソルを重ねると観測所名を参照できる。

次にクリックすると気象観測と天気予報を参照できる。

マップの切り替え:黒色「×」印の緑ボタンをクリックして拡大、「-」印の緑ボタンをクリックして縮小、緑色の三角印をクリックして隣りの地図に切り替え


METAR-TAF: